createdAt,value
2017-10-18T00:01:59.379Z,72.00
2017-10-18T00:04:33.826Z,71.30
2017-10-18T00:07:08.428Z,71.00
2017-10-18T00:09:42.563Z,71.10
2017-10-18T00:12:16.916Z,71.40
2017-10-18T00:14:51.526Z,72.20
2017-10-18T00:17:25.852Z,71.40
2017-10-18T00:20:00.378Z,70.70
2017-10-18T00:22:34.683Z,70.50
2017-10-18T00:25:09.187Z,70.90
2017-10-18T00:27:43.554Z,70.70
2017-10-18T00:30:17.914Z,71.10
2017-10-18T00:32:52.622Z,71.40
2017-10-18T00:35:27.169Z,71.30
2017-10-18T00:38:01.703Z,71.40
2017-10-18T00:40:36.925Z,71.40
2017-10-18T00:43:11.615Z,71.40
2017-10-18T00:45:46.123Z,71.50
2017-10-18T00:48:20.633Z,71.90
2017-10-18T00:50:55.105Z,71.90
2017-10-18T00:53:29.823Z,71.70
2017-10-18T00:56:04.439Z,71.70
2017-10-18T00:58:38.800Z,70.80
2017-10-18T01:01:13.370Z,70.70
2017-10-18T01:03:47.988Z,71.00
2017-10-18T01:06:22.558Z,71.40
2017-10-18T01:08:57.092Z,71.40
2017-10-18T01:11:31.698Z,71.40
2017-10-18T01:14:06.370Z,71.70
2017-10-18T01:16:41.051Z,72.00
2017-10-18T01:19:15.654Z,72.00
2017-10-18T01:21:50.166Z,72.10
2017-10-18T01:24:24.835Z,72.30
2017-10-18T01:26:59.411Z,72.70
2017-10-18T01:29:33.943Z,72.90
2017-10-18T01:32:08.482Z,73.10
2017-10-18T01:34:42.994Z,73.20
2017-10-18T01:37:17.555Z,73.50
2017-10-18T01:39:51.957Z,73.80
2017-10-18T01:42:26.542Z,74.00
2017-10-18T01:45:01.207Z,74.40
2017-10-18T01:47:35.816Z,74.90
2017-10-18T01:50:10.290Z,75.40
2017-10-18T01:52:44.947Z,75.70
2017-10-18T01:55:19.515Z,76.00
2017-10-18T01:57:54.032Z,76.30
2017-10-18T02:00:28.554Z,76.20
2017-10-18T02:03:03.203Z,76.30
2017-10-18T02:05:37.778Z,76.40
2017-10-18T02:08:12.221Z,76.60
2017-10-18T02:10:46.892Z,76.70
2017-10-18T02:13:21.475Z,77.10
2017-10-18T02:15:56.024Z,77.10
2017-10-18T02:18:30.622Z,77.10
2017-10-18T02:37:00.297Z,76.50
2017-10-18T02:39:34.934Z,76.30
2017-10-18T02:42:09.592Z,76.70
2017-10-18T02:44:44.105Z,76.80
2017-10-18T02:47:19.452Z,76.70
2017-10-18T02:49:53.948Z,76.70
2017-10-18T02:52:28.485Z,76.40
2017-10-18T02:55:08.486Z,75.90
2017-10-18T02:57:42.904Z,75.30
2017-10-18T03:00:18.208Z,74.20
2017-10-18T03:02:52.923Z,74.10
2017-10-18T03:05:27.526Z,73.70
2017-10-18T03:08:02.073Z,73.60
2017-10-18T03:10:36.578Z,73.80
2017-10-18T03:13:11.093Z,74.00
2017-10-18T03:15:45.725Z,74.00
2017-10-18T03:18:20.262Z,74.00
2017-10-18T03:20:54.911Z,74.10
2017-10-18T03:23:29.356Z,73.70
2017-10-18T03:26:02.977Z,73.90
2017-10-18T03:28:37.313Z,74.30
2017-10-18T03:31:11.852Z,74.30
2017-10-18T03:33:46.448Z,74.90
2017-10-18T03:36:21.046Z,75.00
2017-10-18T03:38:56.345Z,75.70
2017-10-18T03:41:30.821Z,75.60
2017-10-18T03:44:05.334Z,75.90
2017-10-18T03:46:39.918Z,76.20
2017-10-18T03:49:14.386Z,76.50
2017-10-18T03:51:48.927Z,76.90
2017-10-18T03:54:23.534Z,77.60
2017-10-18T03:56:58.173Z,78.30
2017-10-18T03:59:32.786Z,78.40
2017-10-18T04:02:07.414Z,78.40
2017-10-18T04:04:42.030Z,78.70
2017-10-18T04:07:16.553Z,78.40
2017-10-18T04:09:51.155Z,78.40
2017-10-18T04:12:25.710Z,78.60
2017-10-18T04:15:00.178Z,78.70
2017-10-18T04:17:34.733Z,79.00
2017-10-18T04:20:09.286Z,78.70
2017-10-18T04:22:43.789Z,78.20
2017-10-18T04:25:18.438Z,77.80
2017-10-18T04:27:53.033Z,77.60
2017-10-18T04:30:27.574Z,77.30
2017-10-18T04:33:02.147Z,76.80
2017-10-18T04:35:36.431Z,76.60
2017-10-18T04:38:11.618Z,76.80
2017-10-18T04:40:46.177Z,76.70
2017-10-18T04:43:20.658Z,77.00
2017-10-18T04:45:55.240Z,77.00
2017-10-18T04:48:29.938Z,76.70
2017-10-18T04:51:04.442Z,77.00
2017-10-18T04:53:39.496Z,76.80
2017-10-18T04:56:14.099Z,76.80
2017-10-18T04:58:48.562Z,76.80
2017-10-18T05:01:23.858Z,77.20
2017-10-18T05:03:58.426Z,77.00
2017-10-18T05:06:33.046Z,77.40
2017-10-18T05:09:07.536Z,77.60
2017-10-18T05:11:42.107Z,77.40
2017-10-18T05:14:16.809Z,77.30
2017-10-18T05:16:51.169Z,77.60
2017-10-18T05:19:25.493Z,77.80
2017-10-18T05:21:59.114Z,78.00
2017-10-18T05:24:33.630Z,77.10
2017-10-18T05:27:08.171Z,77.30
2017-10-18T05:29:42.817Z,77.10
2017-10-18T05:32:17.326Z,76.60
2017-10-18T05:34:51.935Z,76.40
2017-10-18T05:37:26.451Z,76.20
2017-10-18T05:40:00.893Z,76.00
2017-10-18T05:42:35.465Z,75.90
2017-10-18T05:45:13.794Z,75.90
2017-10-18T05:47:48.397Z,75.80
2017-10-18T05:50:22.909Z,75.90
2017-10-18T05:52:57.333Z,75.90
2017-10-18T05:55:33.622Z,76.00
2017-10-18T05:58:08.259Z,75.70
2017-10-18T06:00:42.732Z,76.00
2017-10-18T06:03:17.389Z,76.00
2017-10-18T06:05:57.913Z,75.90
2017-10-18T06:08:32.513Z,75.90
2017-10-18T06:11:07.147Z,76.50
2017-10-18T06:13:41.816Z,76.80
2017-10-18T06:16:16.354Z,77.10
2017-10-18T06:18:50.589Z,76.90
2017-10-18T06:21:25.138Z,76.50
2017-10-18T06:23:59.417Z,76.10
2017-10-18T06:26:33.917Z,75.90
2017-10-18T06:29:08.435Z,75.70
2017-10-18T06:31:42.985Z,75.30
2017-10-18T06:34:17.409Z,75.20
2017-10-18T06:36:52.045Z,75.10
2017-10-18T06:39:26.657Z,74.80
2017-10-18T06:42:01.977Z,74.50
2017-10-18T06:44:36.526Z,74.30
2017-10-18T06:47:11.105Z,74.00
2017-10-18T06:49:45.744Z,73.70
2017-10-18T06:52:20.386Z,73.70
2017-10-18T06:54:54.833Z,73.50
2017-10-18T06:57:29.326Z,73.30
2017-10-18T07:00:07.516Z,73.00
2017-10-18T07:02:42.117Z,73.20
2017-10-18T07:05:16.654Z,73.00
2017-10-18T07:07:51.331Z,73.00
2017-10-18T07:10:25.973Z,72.70
2017-10-18T07:13:00.659Z,72.60
2017-10-18T07:15:36.026Z,72.30
2017-10-18T07:18:10.654Z,72.20
2017-10-18T07:20:45.337Z,72.20
2017-10-18T07:23:19.926Z,72.10
2017-10-18T07:25:54.485Z,71.80
2017-10-18T07:28:28.983Z,71.60
2017-10-18T07:31:03.538Z,71.40
2017-10-18T07:33:38.154Z,71.40
2017-10-18T07:36:12.599Z,71.00
2017-10-18T07:38:47.029Z,70.80
2017-10-18T07:41:21.406Z,70.60
2017-10-18T07:43:56.114Z,70.30
2017-10-18T07:46:30.618Z,70.10
2017-10-18T07:49:05.161Z,70.20
2017-10-18T07:51:39.838Z,70.10
2017-10-18T07:54:15.078Z,70.00
2017-10-18T07:56:49.547Z,70.00
2017-10-18T07:59:24.021Z,69.60
2017-10-18T08:01:58.559Z,69.20
2017-10-18T08:04:33.234Z,68.90
2017-10-18T08:07:07.713Z,68.90
2017-10-18T08:09:42.182Z,69.00
2017-10-18T08:12:16.704Z,68.70
2017-10-18T08:14:51.386Z,68.40
2017-10-18T08:17:26.022Z,67.90
2017-10-18T08:20:00.221Z,67.60
2017-10-18T08:22:34.541Z,67.10
2017-10-18T08:25:10.215Z,66.20
2017-10-18T08:27:44.722Z,65.10
2017-10-18T08:30:19.330Z,64.00
2017-10-18T08:32:54.054Z,63.80
2017-10-18T08:35:28.693Z,63.20
2017-10-18T08:38:03.490Z,62.00
2017-10-18T08:40:37.738Z,61.80
2017-10-18T08:43:12.374Z,61.40
2017-10-18T08:45:47.698Z,61.60
2017-10-18T08:48:22.138Z,61.50
2017-10-18T08:50:56.680Z,61.60
2017-10-18T08:53:31.447Z,61.60
2017-10-18T08:56:05.902Z,60.90
2017-10-18T08:58:40.544Z,60.10
2017-10-18T09:01:14.362Z,59.00
2017-10-18T09:03:48.930Z,57.30
2017-10-18T09:06:23.463Z,55.10
2017-10-18T09:08:58.125Z,54.00
2017-10-18T09:11:32.502Z,53.20
2017-10-18T09:14:06.793Z,52.20
2017-10-18T09:16:41.371Z,50.90
2017-10-18T09:19:15.880Z,49.30
2017-10-18T09:21:50.502Z,44.80
2017-10-18T09:24:25.039Z,41.60
2017-10-18T09:26:59.652Z,38.20
2017-10-18T09:29:34.243Z,35.20
2017-10-18T09:32:08.805Z,33.30
2017-10-18T09:34:43.370Z,31.90
2017-10-18T09:37:17.994Z,30.80
2017-10-18T09:39:52.619Z,29.50
2017-10-18T09:42:26.997Z,28.40
2017-10-18T09:45:01.454Z,27.40
2017-10-18T09:47:36.025Z,26.30
2017-10-18T09:50:10.605Z,24.40
2017-10-18T09:52:45.319Z,23.60
2017-10-18T09:55:19.873Z,23.00
2017-10-18T09:57:54.530Z,22.20
2017-10-18T10:00:28.708Z,21.60
2017-10-18T10:03:03.214Z,21.70
2017-10-18T10:05:37.769Z,21.00
2017-10-18T10:08:12.390Z,21.70
2017-10-18T10:10:46.710Z,21.70
2017-10-18T10:13:21.192Z,21.50
2017-10-18T10:15:55.530Z,21.30
2017-10-18T10:18:30.054Z,21.60
2017-10-18T10:21:04.646Z,21.60
2017-10-18T10:23:39.089Z,21.70
2017-10-18T10:26:13.652Z,22.30
2017-10-18T10:28:48.196Z,22.80
2017-10-18T10:31:22.642Z,22.80
2017-10-18T10:33:57.102Z,23.10
2017-10-18T10:36:31.601Z,23.80
2017-10-18T10:39:05.934Z,23.30
2017-10-18T10:41:40.578Z,23.20
2017-10-18T10:44:15.232Z,23.20
2017-10-18T10:46:49.861Z,22.30
2017-10-18T10:49:24.437Z,22.00
2017-10-18T10:51:59.065Z,21.90
2017-10-18T10:54:33.695Z,21.30
2017-10-18T10:57:09.013Z,20.60
2017-10-18T10:59:43.919Z,20.60
2017-10-18T11:02:18.378Z,20.60
2017-10-18T11:04:52.827Z,20.70
2017-10-18T11:07:27.386Z,20.60
2017-10-18T11:10:02.122Z,20.40
2017-10-18T11:12:37.630Z,20.00
2017-10-18T11:15:12.138Z,19.60
2017-10-18T11:17:47.349Z,19.70
2017-10-18T11:20:21.838Z,19.70
2017-10-18T11:22:56.158Z,19.50
2017-10-18T11:25:30.478Z,19.50
2017-10-18T11:28:05.090Z,19.60
2017-10-18T11:30:39.716Z,19.30
2017-10-18T11:33:14.306Z,19.50
2017-10-18T11:35:48.823Z,19.10
2017-10-18T11:38:24.142Z,19.20
2017-10-18T11:40:58.614Z,19.20
2017-10-18T11:43:33.070Z,18.90
2017-10-18T11:46:07.684Z,18.90
2017-10-18T11:48:42.326Z,18.90
2017-10-18T11:51:16.929Z,19.10
2017-10-18T11:53:51.609Z,19.20
2017-10-18T11:56:26.070Z,19.10
2017-10-18T11:59:00.597Z,19.40
2017-10-18T12:01:35.147Z,19.30
2017-10-18T12:04:09.593Z,19.30
2017-10-18T12:06:44.212Z,19.10
2017-10-18T12:09:18.765Z,19.20
2017-10-18T12:11:53.325Z,19.30
2017-10-18T12:14:27.923Z,19.30
2017-10-18T12:17:02.406Z,19.30
2017-10-18T12:19:36.833Z,19.20
2017-10-18T12:22:11.458Z,19.20
2017-10-18T12:24:46.030Z,19.60
2017-10-18T12:27:20.518Z,19.80
2017-10-18T12:29:55.061Z,19.50
2017-10-18T12:32:29.657Z,19.60
2017-10-18T12:35:05.918Z,19.90
2017-10-18T12:37:40.562Z,19.90
2017-10-18T12:40:15.135Z,19.90
2017-10-18T12:42:49.789Z,19.80
2017-10-18T12:45:24.399Z,20.80
2017-10-18T12:47:59.281Z,22.20
2017-10-18T12:50:33.766Z,23.20
2017-10-18T12:53:08.418Z,24.70
2017-10-18T12:55:42.981Z,26.40
2017-10-18T12:58:17.407Z,28.30
2017-10-18T13:00:51.894Z,29.50
2017-10-18T13:03:26.397Z,30.80
2017-10-18T13:06:00.953Z,31.60
2017-10-18T13:08:35.374Z,32.90
2017-10-18T13:11:10.004Z,33.80
2017-10-18T13:13:44.747Z,34.40
2017-10-18T13:16:19.303Z,35.40
2017-10-18T13:18:53.963Z,35.90
2017-10-18T13:21:28.678Z,36.40
2017-10-18T13:24:03.218Z,36.80
2017-10-18T13:26:38.758Z,37.80
2017-10-18T13:29:13.261Z,37.80
2017-10-18T13:31:47.836Z,38.20
2017-10-18T13:34:23.238Z,39.20
2017-10-18T13:36:57.910Z,39.70
2017-10-18T13:39:32.716Z,40.30
2017-10-18T13:42:07.151Z,40.50
2017-10-18T13:44:41.797Z,41.20
2017-10-18T13:47:16.354Z,41.10
2017-10-18T13:49:50.786Z,42.00
2017-10-18T13:52:25.406Z,41.80
2017-10-18T13:54:59.881Z,42.40
2017-10-18T13:57:34.509Z,42.30
2017-10-18T14:00:11.828Z,42.10
2017-10-18T14:02:46.245Z,42.20
2017-10-18T14:05:20.823Z,42.20
2017-10-18T14:07:55.194Z,42.30
2017-10-18T14:10:29.753Z,42.40
2017-10-18T14:13:04.197Z,42.70
2017-10-18T14:15:38.697Z,42.80
2017-10-18T14:18:13.262Z,42.80
2017-10-18T14:20:47.834Z,43.30
2017-10-18T14:23:22.311Z,43.60
2017-10-18T14:25:56.830Z,43.80
2017-10-18T14:28:32.222Z,44.80
2017-10-18T14:31:06.774Z,44.80
2017-10-18T14:33:41.998Z,45.30
2017-10-18T14:36:17.366Z,45.60
2017-10-18T14:38:51.857Z,45.60
2017-10-18T14:41:26.498Z,45.90
2017-10-18T14:44:01.123Z,46.40
2017-10-18T14:46:35.725Z,46.30
2017-10-18T14:49:10.376Z,46.60
2017-10-18T14:51:44.865Z,47.60
2017-10-18T14:54:19.566Z,47.60
2017-10-18T14:56:54.142Z,47.70
2017-10-18T14:59:28.587Z,48.30
2017-10-18T15:02:02.985Z,48.80
2017-10-18T15:04:37.425Z,49.20
2017-10-18T15:07:12.050Z,49.90
2017-10-18T15:09:46.650Z,50.10
2017-10-18T15:12:21.314Z,50.40
2017-10-18T15:14:55.790Z,50.80
2017-10-18T15:17:30.350Z,51.50
2017-10-18T15:20:08.930Z,51.70
2017-10-18T15:22:43.472Z,52.00
2017-10-18T15:25:18.857Z,52.80
2017-10-18T15:27:53.342Z,52.70
2017-10-18T15:30:27.794Z,53.10
2017-10-18T15:33:02.414Z,53.60
2017-10-18T15:35:37.041Z,53.80
2017-10-18T15:38:11.710Z,54.10
2017-10-18T15:40:46.226Z,54.20
2017-10-18T15:43:21.698Z,54.60
2017-10-18T15:45:56.169Z,54.60
2017-10-18T15:48:30.683Z,55.10
2017-10-18T15:51:05.235Z,55.50
2017-10-18T15:53:40.011Z,55.70
2017-10-18T15:56:14.758Z,55.80
2017-10-18T15:58:50.097Z,56.20
2017-10-18T16:01:24.678Z,56.10
2017-10-18T16:03:59.233Z,56.40
2017-10-18T16:06:33.860Z,56.60
2017-10-18T16:09:08.381Z,56.70
2017-10-18T16:11:42.941Z,57.00
2017-10-18T16:14:17.485Z,57.20
2017-10-18T16:16:52.026Z,57.50
2017-10-18T16:19:27.478Z,58.50
2017-10-18T16:22:01.926Z,57.80
2017-10-18T16:24:36.569Z,58.20
2017-10-18T16:27:11.237Z,58.40
2017-10-18T16:29:45.861Z,58.80
2017-10-18T16:32:20.362Z,59.00
2017-10-18T16:34:54.857Z,59.50
2017-10-18T16:37:29.462Z,59.80
2017-10-18T16:40:04.030Z,60.00
2017-10-18T16:42:39.754Z,60.60
2017-10-18T16:45:14.232Z,60.60
2017-10-18T16:47:48.843Z,61.00
2017-10-18T16:50:23.162Z,61.30
2017-10-18T16:52:57.713Z,61.40
2017-10-18T16:55:32.410Z,61.80
2017-10-18T16:58:06.940Z,62.00
2017-10-18T17:00:41.477Z,62.10
2017-10-18T17:03:16.060Z,62.30
2017-10-18T17:05:50.636Z,62.60
2017-10-18T17:08:25.147Z,62.70
2017-10-18T17:10:59.754Z,63.00
2017-10-18T17:13:34.277Z,63.20
2017-10-18T17:16:08.865Z,63.30
2017-10-18T17:18:43.501Z,63.40
2017-10-18T17:21:17.990Z,63.80
2017-10-18T17:23:52.429Z,63.90
2017-10-18T17:26:27.026Z,64.20
2017-10-18T17:29:01.491Z,64.60
2017-10-18T17:31:36.158Z,65.00
2017-10-18T17:34:10.867Z,65.40
2017-10-18T17:36:45.378Z,65.40
2017-10-18T17:39:19.891Z,65.80
2017-10-18T17:41:54.621Z,66.00
2017-10-18T17:44:28.926Z,66.40
2017-10-18T17:47:03.289Z,66.50
2017-10-18T17:49:37.947Z,66.80
2017-10-18T17:52:12.434Z,66.90
2017-10-18T17:54:47.022Z,67.20
2017-10-18T17:57:21.614Z,67.50
2017-10-18T17:59:56.128Z,67.60
2017-10-18T18:02:30.454Z,67.70
2017-10-18T18:05:12.627Z,67.90
2017-10-18T18:07:47.085Z,68.00
2017-10-18T18:10:21.669Z,68.10
2017-10-18T18:12:56.105Z,68.10
2017-10-18T18:15:30.659Z,68.40
2017-10-18T18:18:04.930Z,68.60
2017-10-18T18:20:39.482Z,68.70
2017-10-18T18:23:13.925Z,68.70
2017-10-18T18:25:49.285Z,68.90
2017-10-18T18:28:24.047Z,68.80
2017-10-18T18:30:58.511Z,69.10
2017-10-18T18:33:32.994Z,69.10
2017-10-18T18:36:07.571Z,69.10
2017-10-18T18:38:42.017Z,69.20
2017-10-18T18:41:16.359Z,69.50
2017-10-18T18:43:50.910Z,69.60
2017-10-18T18:46:25.453Z,69.70
2017-10-18T18:49:00.082Z,69.80
2017-10-18T18:51:34.678Z,69.90
2017-10-18T18:54:09.996Z,70.30
2017-10-18T18:56:44.583Z,70.30
2017-10-18T18:59:19.194Z,70.40
2017-10-18T19:01:53.804Z,70.50
2017-10-18T19:04:28.389Z,70.60
2017-10-18T19:07:02.930Z,70.70
2017-10-18T19:09:38.143Z,71.00
2017-10-18T19:12:12.610Z,70.80
2017-10-18T19:14:47.185Z,71.20
2017-10-18T19:17:21.791Z,71.10
2017-10-18T19:19:56.200Z,71.20
2017-10-18T19:22:31.407Z,71.30
2017-10-18T19:25:12.842Z,71.10
2017-10-18T19:27:47.487Z,71.20
2017-10-18T19:30:22.010Z,71.40
2017-10-18T19:32:57.345Z,71.50
2017-10-18T19:35:31.965Z,71.50
2017-10-18T19:38:06.498Z,71.70
2017-10-18T19:40:40.998Z,71.70
2017-10-18T19:43:15.654Z,71.60
2017-10-18T19:45:50.315Z,71.90
2017-10-18T19:48:24.886Z,72.10
2017-10-18T19:50:59.510Z,72.10
2017-10-18T19:53:34.153Z,72.10
2017-10-18T19:56:08.804Z,72.30
2017-10-18T19:58:43.378Z,72.10
2017-10-18T20:01:18.113Z,72.10
2017-10-18T20:03:52.791Z,72.20
2017-10-18T20:06:27.346Z,72.30
2017-10-18T20:09:01.926Z,72.30
2017-10-18T20:11:36.530Z,72.20
2017-10-18T20:14:11.180Z,72.50
2017-10-18T20:16:45.738Z,72.70
2017-10-18T20:19:20.211Z,72.60
2017-10-18T20:21:54.833Z,72.60
2017-10-18T20:24:29.354Z,72.40
2017-10-18T20:27:03.937Z,72.70
2017-10-18T20:29:38.494Z,72.70
2017-10-18T20:32:14.058Z,72.90
2017-10-18T20:34:48.586Z,72.90
2017-10-18T20:37:23.194Z,72.90
2017-10-18T20:39:57.777Z,72.90
2017-10-18T20:42:32.273Z,72.80
2017-10-18T20:45:15.889Z,72.60
2017-10-18T20:47:50.140Z,72.60
2017-10-18T20:50:24.473Z,72.50
2017-10-18T20:52:59.174Z,72.40
2017-10-18T20:55:33.785Z,72.40
2017-10-18T20:58:08.543Z,71.90
2017-10-18T21:00:43.128Z,72.40
2017-10-18T21:03:17.574Z,72.50
2017-10-18T21:05:52.114Z,72.60
2017-10-18T21:08:26.521Z,72.70
2017-10-18T21:11:00.988Z,72.80
2017-10-18T21:13:35.631Z,72.80
2017-10-18T21:16:09.998Z,72.80
2017-10-18T21:18:44.617Z,72.70
2017-10-18T21:21:19.170Z,72.60
2017-10-18T21:23:53.781Z,72.40
2017-10-18T21:26:28.370Z,72.00
2017-10-18T21:29:02.866Z,72.30
2017-10-18T21:31:37.202Z,72.40
2017-10-18T21:34:11.903Z,72.50
2017-10-18T21:36:46.522Z,72.40
2017-10-18T21:39:20.737Z,72.80
2017-10-18T21:41:55.260Z,72.60
2017-10-18T21:44:29.936Z,72.80
2017-10-18T21:47:04.582Z,73.20
2017-10-18T21:49:40.015Z,73.90
2017-10-18T21:52:15.452Z,73.70
2017-10-18T21:54:49.958Z,73.70
2017-10-18T21:57:24.587Z,73.50
2017-10-18T21:59:59.129Z,73.60
2017-10-18T22:02:33.737Z,73.60
2017-10-18T22:05:08.287Z,73.20
2017-10-18T22:07:42.907Z,73.20
2017-10-18T22:10:17.438Z,73.30
2017-10-18T22:12:52.130Z,73.40
2017-10-18T22:15:26.674Z,73.40
2017-10-18T22:18:01.182Z,73.40
2017-10-18T22:20:35.510Z,73.60
2017-10-18T22:23:10.930Z,73.60
2017-10-18T22:25:45.614Z,73.70
2017-10-18T22:28:20.350Z,73.70
2017-10-18T22:30:54.857Z,73.80
2017-10-18T22:33:29.458Z,74.00
2017-10-18T22:36:04.026Z,74.00
2017-10-18T22:38:38.614Z,74.20
2017-10-18T22:41:13.858Z,74.50
2017-10-18T22:43:48.497Z,74.30
2017-10-18T22:46:23.130Z,74.70
2017-10-18T22:48:57.761Z,75.30
2017-10-18T22:51:32.279Z,75.90
2017-10-18T22:54:07.770Z,76.50
2017-10-18T22:56:42.254Z,76.50
2017-10-18T22:59:16.889Z,76.60
2017-10-18T23:01:51.453Z,77.00
2017-10-18T23:04:26.118Z,77.00
2017-10-18T23:07:00.792Z,77.20
2017-10-18T23:09:35.423Z,77.20
2017-10-18T23:12:10.017Z,77.40
2017-10-18T23:14:44.582Z,77.40
2017-10-18T23:17:19.354Z,77.40
2017-10-18T23:19:53.825Z,77.40
2017-10-18T23:22:28.544Z,77.80
2017-10-18T23:25:03.238Z,78.00
2017-10-18T23:27:37.773Z,78.10
2017-10-18T23:30:12.402Z,77.90
2017-10-18T23:32:46.940Z,78.00
2017-10-18T23:35:21.517Z,78.30
2017-10-18T23:37:55.979Z,78.30
2017-10-18T23:40:30.537Z,78.30
2017-10-18T23:43:05.062Z,78.60
2017-10-18T23:45:39.631Z,78.80
2017-10-18T23:48:14.273Z,78.80
2017-10-18T23:50:48.766Z,78.70
2017-10-18T23:53:24.173Z,78.70
2017-10-18T23:55:58.665Z,78.50
2017-10-18T23:58:33.199Z,79.40
